Time;durP1;ratioP1;P1;durP2;ratioP2;P2;SDS_P1;SDS_P2;PMS_P1;PMS_P2;Temp;Humidity;BMP_temperature;BMP_pressure;BME280_temperature;BME280_humidity;BME280_pressure;Samples;Min_cycle;Max_cycle;Signal;HPM_P1;HPM_P2
2022/07/26 06:36:03;;;;;;;3.05;0.90;;;;;;;23.71;64.35;100119.53;4676968;23;20457;-63
2022/07/26 06:38:30;;;;;;;5.32;0.90;;;;;;;24.00;61.89;100120.69;4886969;29;20044;-64
2022/07/26 06:40:55;;;;;;;1.45;0.68;;;;;;;24.10;60.93;100113.47;4894510;29;20032;-65
2022/07/26 06:43:21;;;;;;;2.60;0.68;;;;;;;24.24;60.97;100126.72;4877375;29;20395;-65
2022/07/26 06:45:48;;;;;;;1.23;0.70;;;;;;;24.30;60.38;100129.75;4894955;29;20131;-66
2022/07/26 06:48:14;;;;;;;4.35;0.80;;;;;;;24.39;59.99;100125.38;4896214;29;20028;-66
2022/07/26 06:50:40;;;;;;;3.15;0.82;;;;;;;24.45;59.46;100122.09;4894526;29;20029;-66
2022/07/26 06:53:05;;;;;;;2.10;0.57;;;;;;;24.53;59.33;100109.56;4895779;29;20036;-66
2022/07/26 06:55:30;;;;;;;3.38;0.90;;;;;;;24.54;58.55;100110.44;4894435;29;20071;-66
2022/07/26 06:57:56;;;;;;;2.90;0.68;;;;;;;24.63;57.87;100125.94;4892288;29;20031;-66
2022/07/26 07:00:21;;;;;;;3.65;0.80;;;;;;;24.52;57.17;100117.88;4894085;29;20036;-66
2022/07/26 07:02:47;;;;;;;2.88;0.43;;;;;;;24.48;57.94;100113.72;4883017;29;20214;-66
2022/07/26 07:05:13;;;;;;;4.88;0.75;;;;;;;24.41;57.69;100117.94;4875207;29;20033;-66
2022/07/26 07:07:38;;;;;;;6.80;0.98;;;;;;;24.72;57.32;100119.72;4875877;29;20040;-67
2022/07/26 07:10:04;;;;;;;3.03;0.50;;;;;;;25.05;54.58;100116.69;4875835;29;20033;-67
2022/07/26 07:12:30;;;;;;;2.13;0.75;;;;;;;25.15;53.13;100122.16;4877117;29;20044;-67
2022/07/26 07:14:55;;;;;;;1.35;0.68;;;;;;;25.33;53.54;100121.34;4876826;29;20029;-67
2022/07/26 07:17:21;;;;;;;1.77;0.50;;;;;;;25.41;53.96;100123.38;4876839;29;20025;-67
2022/07/26 07:19:47;;;;;;;1.52;0.60;;;;;;;25.57;53.45;100126.41;4875445;29;20033;-67
2022/07/26 07:22:12;;;;;;;1.20;0.60;;;;;;;25.79;52.46;100124.28;4874856;29;20028;-67
2022/07/26 07:24:39;;;;;;;1.60;0.50;;;;;;;25.87;50.07;100127.16;4876333;29;20635;-67
2022/07/26 07:27:04;;;;;;;2.67;0.65;;;;;;;25.93;49.22;100121.09;4876847;29;20400;-67
2022/07/26 07:29:30;;;;;;;3.60;1.13;;;;;;;25.92;50.85;100124.84;4876007;29;20115;-68
2022/07/26 07:31:55;;;;;;;2.03;0.70;;;;;;;26.12;48.81;100119.41;4876374;29;20032;-68
2022/07/26 07:34:21;;;;;;;1.92;0.70;;;;;;;26.06;50.25;100131.78;4882415;29;20095;-68
2022/07/26 07:36:50;;;;;;;0.95;0.40;;;;;;;26.44;49.82;100128.09;4914061;29;20395;-68
2022/07/26 07:39:16;;;;;;;1.30;0.70;;;;;;;26.63;48.05;100125.31;4895638;29;20035;-67
2022/07/26 07:41:43;;;;;;;1.40;0.43;;;;;;;26.77;47.67;100122.16;4912303;29;20055;-68
2022/07/26 07:44:08;;;;;;;1.40;0.50;;;;;;;27.01;47.64;100119.72;4912511;29;20048;-68
2022/07/26 07:46:34;;;;;;;2.97;0.40;;;;;;;27.46;47.19;100120.66;4912760;29;20032;-68
2022/07/26 07:48:59;;;;;;;3.88;0.55;;;;;;;27.84;44.57;100114.84;4911363;29;20046;-68
2022/07/26 07:51:26;;;;;;;2.38;0.50;;;;;;;27.99;44.39;100115.22;4913322;29;20055;-68
2022/07/26 07:53:51;;;;;;;0.93;0.45;;;;;;;28.15;44.35;100120.81;4927527;29;20046;-68
2022/07/26 07:56:17;;;;;;;1.42;0.40;;;;;;;28.17;44.10;100116.03;4913028;29;20039;-68
2022/07/26 07:58:42;;;;;;;3.35;0.52;;;;;;;28.61;43.77;100108.66;4911650;29;20567;-68
2022/07/26 08:01:07;;;;;;;3.15;0.32;;;;;;;28.87;42.67;100117.69;4912103;29;20885;-68
2022/07/26 08:03:33;;;;;;;1.95;0.47;;;;;;;28.78;42.96;100115.97;4912424;29;20114;-68
2022/07/26 08:05:58;;;;;;;3.55;0.73;;;;;;;28.94;43.11;100116.03;4912480;29;20032;-68
2022/07/26 08:08:24;;;;;;;0.88;0.50;;;;;;;28.85;42.12;100122.47;4912705;29;20028;-68
2022/07/26 08:10:50;;;;;;;3.63;0.50;;;;;;;28.75;42.86;100121.78;4895224;29;20046;-68
2022/07/26 08:13:16;;;;;;;3.55;0.82;;;;;;;29.07;42.34;100127.38;4912724;29;20403;-68
2022/07/26 08:15:41;;;;;;;1.30;0.47;;;;;;;29.14;41.35;100120.28;4912599;29;20032;-68
2022/07/26 08:18:06;;;;;;;1.67;0.43;;;;;;;29.47;41.09;100122.09;4912560;29;20043;-68
2022/07/26 08:20:32;;;;;;;5.95;1.05;;;;;;;29.97;40.16;100108.31;4911675;29;20032;-68
2022/07/26 08:22:57;;;;;;;1.02;0.30;;;;;;;29.97;39.83;100111.06;4913035;29;20071;-68
2022/07/26 08:25:23;;;;;;;3.05;0.43;;;;;;;29.78;40.21;100120.47;4913056;29;20455;-68
2022/07/26 08:27:48;;;;;;;0.70;0.30;;;;;;;30.05;39.96;100117.38;4912696;29;20036;-68
2022/07/26 08:30:13;;;;;;;0.70;0.30;;;;;;;29.88;40.44;100123.03;4910374;29;20756;-68
2022/07/26 08:32:39;;;;;;;2.80;0.47;;;;;;;29.68;40.70;100117.03;4895162;29;20028;-69
2022/07/26 08:35:05;;;;;;;1.58;0.40;;;;;;;29.80;40.55;100114.81;4911550;29;20086;-69
2022/07/26 08:37:30;;;;;;;0.77;0.30;;;;;;;29.72;40.62;100121.13;4911414;29;20043;-69
2022/07/26 08:39:56;;;;;;;3.35;0.28;;;;;;;29.29;40.99;100118.63;4911129;29;20495;-69
2022/07/26 08:42:21;;;;;;;1.98;0.30;;;;;;;28.97;41.39;100112.97;4912574;29;20039;-69
2022/07/26 08:44:48;;;;;;;1.52;0.50;;;;;;;28.90;42.61;100114.63;4912236;29;20035;-69
2022/07/26 08:47:17;;;;;;;1.80;0.40;;;;;;;29.19;42.38;100109.66;4912103;29;20084;-69
2022/07/26 08:49:43;;;;;;;0.70;0.40;;;;;;;29.89;40.84;100120.13;4911061;29;20024;-69
2022/07/26 08:52:10;;;;;;;0.50;0.40;;;;;;;30.17;39.85;100113.28;4910551;29;20032;-69
2022/07/26 08:54:42;;;;;;;1.05;0.45;;;;;;;30.39;39.40;100118.09;4913263;29;20066;-69
2022/07/26 08:57:07;;;;;;;2.03;0.40;;;;;;;30.51;39.28;100119.44;4913490;29;20543;-69
2022/07/26 08:59:32;;;;;;;2.25;0.40;;;;;;;30.58;39.67;100116.84;4913043;29;20116;-69
2022/07/26 09:02:04;;;;;;;2.60;0.43;;;;;;;30.52;38.61;100123.91;4913060;29;20407;-69
2022/07/26 09:04:43;;;;;;;1.13;0.45;;;;;;;30.31;39.80;100120.84;4913024;29;20038;-69
2022/07/26 09:07:14;;;;;;;1.52;0.50;;;;;;;29.42;40.03;100111.59;4913370;29;20044;-69
2022/07/26 09:10:04;;;;;;;0.68;0.40;;;;;;;29.78;40.08;100111.38;4912849;29;20036;-69
2022/07/26 09:12:31;;;;;;;2.17;0.57;;;;;;;30.53;38.26;100114.63;4896025;29;20036;-70
2022/07/26 09:14:58;;;;;;;0.80;0.30;;;;;;;30.57;37.94;100118.75;4912280;29;20808;-70
2022/07/26 09:17:35;;;;;;;0.88;0.40;;;;;;;30.90;37.22;100127.81;4913048;29;20029;-70
2022/07/26 09:20:03;;;;;;;1.67;0.40;;;;;;;31.11;36.73;100129.94;4912233;29;20369;-70
2022/07/26 09:22:28;;;;;;;2.00;0.40;;;;;;;31.47;36.72;100131.16;4913350;29;20035;-71
2022/07/26 09:24:54;;;;;;;0.55;0.32;;;;;;;31.32;36.51;100125.56;4913310;29;20092;-71
2022/07/26 09:27:19;;;;;;;1.10;0.45;;;;;;;31.26;35.27;100128.16;4921508;29;20114;-70
2022/07/26 09:29:53;;;;;;;1.38;0.60;;;;;;;31.25;37.27;100124.56;4931394;29;20031;-71
2022/07/26 09:32:20;;;;;;;1.42;0.52;;;;;;;31.80;36.52;100129.94;4931235;29;20036;-71
2022/07/26 09:34:51;;;;;;;0.73;0.25;;;;;;;32.50;35.56;100131.47;4926024;29;20056;-71
2022/07/26 09:37:17;;;;;;;1.17;0.22;;;;;;;32.78;33.81;100116.03;4895071;29;20055;-71
2022/07/26 09:39:56;;;;;;;3.30;0.45;;;;;;;32.43;33.49;100119.50;4912596;29;20024;-71
2022/07/26 09:42:23;;;;;;;1.20;0.43;;;;;;;32.24;35.13;100136.50;4914923;29;20083;-70
2022/07/26 09:44:48;;;;;;;1.48;0.20;;;;;;;32.28;35.09;100126.81;4916271;29;20032;-70
2022/07/26 09:47:14;;;;;;;0.38;0.20;;;;;;;32.57;34.35;100135.19;4916164;29;20091;-70
2022/07/26 09:49:40;;;;;;;0.65;0.30;;;;;;;32.38;33.10;100132.06;4915445;29;20080;-70
2022/07/26 09:52:17;;;;;;;0.52;0.30;;;;;;;32.55;34.23;100136.41;4916268;29;20559;-70
2022/07/26 09:54:45;;;;;;;1.17;0.30;;;;;;;32.76;33.59;100131.03;4916132;29;20123;-70
2022/07/26 09:57:17;;;;;;;1.98;0.40;;;;;;;31.70;36.02;100138.44;4916360;29;20393;-70
2022/07/26 09:59:43;;;;;;;0.83;0.40;;;;;;;32.06;35.15;100130.44;4915488;29;20035;-70
2022/07/26 10:02:09;;;;;;;0.82;0.38;;;;;;;32.23;34.18;100134.78;4915930;29;20480;-71
2022/07/26 10:04:34;;;;;;;1.08;0.28;;;;;;;32.47;35.09;100136.50;4915994;29;20043;-71
2022/07/26 10:07:01;;;;;;;5.95;0.50;;;;;;;32.48;33.51;100128.06;4915701;29;20039;-71
2022/07/26 10:09:52;;;;;;;6.28;0.52;;;;;;;32.69;34.28;100121.78;4915260;29;20581;-71
2022/07/26 10:12:20;;;;;;;4.07;0.40;;;;;;;32.89;33.57;100121.06;4913994;29;20036;-71
2022/07/26 10:14:46;;;;;;;0.88;0.40;;;;;;;32.61;33.19;100144.78;4914877;29;20321;-71
2022/07/26 10:17:32;;;;;;;1.85;0.20;;;;;;;32.52;34.03;100134.88;4915773;29;20032;-71
2022/07/26 10:20:05;;;;;;;0.85;0.30;;;;;;;32.64;35.24;100132.53;4914818;29;20043;-71
2022/07/26 10:22:45;;;;;;;1.92;0.30;;;;;;;32.92;33.84;100131.72;4915582;29;20071;-71
2022/07/26 10:25:16;;;;;;;2.55;0.40;;;;;;;32.59;33.92;100130.34;4915614;29;20070;-71
2022/07/26 10:27:46;;;;;;;3.80;0.50;;;;;;;32.85;34.63;100130.75;4927320;29;20443;-71
2022/07/26 10:30:21;;;;;;;2.10;0.32;;;;;;;33.18;32.79;100129.34;4916678;29;20171;-71
2022/07/26 10:32:55;;;;;;;0.45;0.30;;;;;;;33.11;32.04;100127.56;4934724;29;20055;-71
2022/07/26 10:35:33;;;;;;;0.38;0.20;;;;;;;33.01;33.77;100119.59;4923727;29;20058;-71
2022/07/26 10:38:02;;;;;;;1.27;0.40;;;;;;;33.20;32.60;100130.00;4915358;29;20064;-71
2022/07/26 10:40:31;;;;;;;1.30;0.52;;;;;;;33.12;32.71;100127.34;4914970;29;20044;-70
2022/07/26 10:43:13;;;;;;;0.55;0.30;;;;;;;33.39;34.02;100139.59;4915283;29;20060;-71
2022/07/26 10:45:40;;;;;;;2.03;0.80;;;;;;;33.44;33.20;100128.00;4914764;29;20047;-70
2022/07/26 10:48:10;;;;;;;0.57;0.20;;;;;;;33.60;33.42;100125.00;4896710;29;20111;-70
2022/07/26 10:50:36;;;;;;;7.63;0.70;;;;;;;33.92;32.17;100127.31;4913504;29;20502;-70
2022/07/26 10:53:02;;;;;;;0.80;0.35;;;;;;;33.56;32.07;100123.72;4913320;29;20116;-70
2022/07/26 10:55:27;;;;;;;1.35;0.47;;;;;;;33.77;32.83;100126.50;4913973;29;20035;-70
2022/07/26 10:57:53;;;;;;;3.72;0.82;;;;;;;34.16;33.57;100121.41;4913543;29;20035;-70
2022/07/26 11:00:22;;;;;;;3.75;0.38;;;;;;;34.38;32.25;100137.75;4914036;29;20509;-70
2022/07/26 11:02:53;;;;;;;1.52;0.40;;;;;;;34.28;32.22;100130.88;4915122;29;20028;-70
2022/07/26 11:05:19;;;;;;;0.88;0.28;;;;;;;33.85;31.79;100118.94;4914710;29;20053;-70
2022/07/26 11:07:55;;;;;;;0.40;0.25;;;;;;;33.98;32.44;100119.13;4914620;29;20105;-70
2022/07/26 11:10:26;;;;;;;2.58;0.40;;;;;;;33.85;32.85;100123.59;4895823;29;20119;-71
2022/07/26 11:13:07;;;;;;;1.30;0.40;;;;;;;33.81;33.10;100112.09;4897792;29;20079;-70
2022/07/26 11:15:34;;;;;;;3.08;0.43;;;;;;;34.39;32.60;100111.84;4929261;29;20051;-70
2022/07/26 11:18:28;;;;;;;0.77;0.30;;;;;;;34.59;31.99;100112.03;4914356;29;20028;-70
2022/07/26 11:20:56;;;;;;;1.75;0.30;;;;;;;34.53;30.45;100110.06;4912975;29;20436;-70
2022/07/26 11:23:26;;;;;;;0.80;0.30;;;;;;;34.52;31.19;100095.41;4914917;29;20413;-70
2022/07/26 11:26:02;;;;;;;0.20;0.20;;;;;;;34.74;31.52;100093.41;4914724;29;20051;-70
2022/07/26 11:28:27;;;;;;;1.63;0.30;;;;;;;35.03;31.49;100093.19;4932264;29;20102;-70
2022/07/26 11:30:57;;;;;;;1.05;0.50;;;;;;;34.90;30.47;100100.53;4915985;29;20123;-70
2022/07/26 11:33:42;;;;;;;0.30;0.20;;;;;;;34.74;30.44;100096.19;4933779;29;20052;-70
2022/07/26 11:36:08;;;;;;;1.15;0.40;;;;;;;34.46;30.80;100100.88;4915154;29;20048;-70
2022/07/26 11:38:47;;;;;;;0.80;0.30;;;;;;;34.71;30.86;100096.59;4913251;29;20028;-70
2022/07/26 11:41:14;;;;;;;0.68;0.20;;;;;;;35.33;29.98;100089.06;4912398;29;20536;-70
2022/07/26 11:43:40;;;;;;;0.90;0.40;;;;;;;35.53;30.32;100098.34;4913323;29;20087;-70
2022/07/26 11:46:06;;;;;;;2.97;0.40;;;;;;;35.67;30.09;100091.75;4913170;29;20096;-70
2022/07/26 11:48:32;;;;;;;1.50;0.30;;;;;;;35.69;30.47;100095.19;4913726;29;20479;-70
2022/07/26 11:51:08;;;;;;;1.65;0.30;;;;;;;35.47;29.38;100088.09;4913097;29;20082;-70
2022/07/26 11:53:37;;;;;;;0.63;0.28;;;;;;;35.64;29.56;100088.56;4896367;29;20055;-70
2022/07/26 11:56:20;;;;;;;0.98;0.30;;;;;;;35.63;29.71;100084.97;4912912;29;20032;-70
2022/07/26 11:58:47;;;;;;;;;;;;;;;35.82;29.13;100082.44;4913474;29;20028;-70
2022/07/26 12:01:15;;;;;;;0.55;0.20;;;;;;;35.83;28.62;100085.81;4895867;29;19914;-71
2022/07/26 12:03:43;;;;;;;0.43;0.20;;;;;;;35.82;28.58;100082.44;4912745;29;20024;-71
2022/07/26 12:06:17;;;;;;;0.57;0.20;;;;;;;35.79;29.31;100073.47;4912635;29;20036;-69
2022/07/26 12:08:46;;;;;;;0.55;0.30;;;;;;;36.06;28.63;100081.84;4912967;29;20036;-69
2022/07/26 12:11:13;;;;;;;1.73;0.28;;;;;;;36.01;29.04;100074.19;4913655;29;20082;-69
2022/07/26 12:13:48;;;;;;;1.05;0.45;;;;;;;36.25;27.82;100079.09;4896853;29;20032;-69
2022/07/26 12:16:58;;;;;;;0.73;0.28;;;;;;;36.49;27.91;100080.41;4896057;29;20480;-69
2022/07/26 12:19:26;;;;;;;0.50;0.20;;;;;;;35.38;28.55;100083.81;4908564;29;20043;-69
2022/07/26 12:22:10;;;;;;;1.08;0.22;;;;;;;34.53;29.55;100082.44;4914015;29;20028;-69
2022/07/26 12:24:40;;;;;;;0.75;0.20;;;;;;;34.52;30.85;100078.81;4913172;29;20032;-69
2022/07/26 12:27:13;;;;;;;0.52;0.30;;;;;;;34.06;29.20;100071.16;4903094;29;20063;-68
2022/07/26 12:29:41;;;;;;;0.47;0.30;;;;;;;33.87;31.10;100075.41;4932386;29;20039;-68
2022/07/26 12:32:14;;;;;;;0.60;0.30;;;;;;;33.52;30.28;100067.19;4932399;29;20035;-68
2022/07/26 12:34:52;;;;;;;6.35;0.50;;;;;;;34.15;30.08;100070.81;4909902;29;20139;-68
2022/07/26 12:37:18;;;;;;;3.22;0.70;;;;;;;34.30;30.75;100065.22;4913401;29;20028;-68
2022/07/26 12:40:03;;;;;;;0.88;0.22;;;;;;;34.21;29.82;100069.19;4912785;29;20031;-70
2022/07/26 12:42:32;;;;;;;1.35;0.20;;;;;;;34.20;30.36;100061.97;4912973;29;20075;-70
2022/07/26 12:44:58;;;;;;;2.17;0.38;;;;;;;34.60;29.28;100063.13;4913438;29;20087;-70
2022/07/26 12:47:24;;;;;;;2.40;0.50;;;;;;;34.82;29.11;100054.53;4913372;29;20033;-70
2022/07/26 12:49:50;;;;;;;1.83;0.32;;;;;;;35.20;28.58;100061.38;4913290;29;20115;-70
2022/07/26 12:52:17;;;;;;;0.52;0.30;;;;;;;35.51;27.19;100058.94;4912971;29;20111;-69
2022/07/26 12:54:44;;;;;;;0.88;0.22;;;;;;;36.08;28.20;100061.16;4913387;29;20503;-69
2022/07/26 12:57:10;;;;;;;2.28;0.40;;;;;;;36.06;27.67;100059.69;4913413;29;20063;-69
2022/07/26 12:59:35;;;;;;;1.73;0.28;;;;;;;35.43;28.68;100056.38;4913275;29;20460;-69
2022/07/26 13:02:02;;;;;;;1.70;0.40;;;;;;;34.29;29.69;100058.84;4913115;29;20043;-69
2022/07/26 13:04:28;;;;;;;1.50;0.50;;;;;;;33.52;30.91;100051.50;4912997;29;20024;-69
2022/07/26 13:06:54;;;;;;;0.50;0.20;;;;;;;32.90;31.80;100053.88;4912332;29;20472;-69
2022/07/26 13:09:19;;;;;;;1.70;0.38;;;;;;;32.49;32.51;100047.13;4912533;29;20161;-69
2022/07/26 13:11:44;;;;;;;0.45;0.30;;;;;;;33.16;32.38;100040.44;4913485;29;20492;-69
2022/07/26 13:14:10;;;;;;;0.68;0.30;;;;;;;33.87;31.09;100033.19;4896216;29;20038;-69
2022/07/26 13:16:36;;;;;;;1.73;0.30;;;;;;;33.56;30.68;100040.94;4915938;29;20020;-69
2022/07/26 13:19:01;;;;;;;0.65;0.30;;;;;;;32.92;31.77;100026.13;4916275;29;20028;-69
2022/07/26 13:21:26;;;;;;;1.20;0.40;;;;;;;33.18;32.54;100029.25;4916646;29;20417;-69
2022/07/26 13:23:52;;;;;;;2.08;0.50;;;;;;;33.44;31.88;100020.44;4916896;29;20039;-69
2022/07/26 13:26:17;;;;;;;1.85;0.35;;;;;;;34.11;30.89;100018.97;4917574;29;20116;-69
2022/07/26 13:28:43;;;;;;;0.30;0.20;;;;;;;34.67;29.50;100026.19;4918384;29;20055;-69
2022/07/26 13:31:08;;;;;;;3.65;0.40;;;;;;;34.81;28.68;100024.34;4935101;29;20035;-69
2022/07/26 13:33:33;;;;;;;1.63;0.22;;;;;;;34.77;30.28;100025.78;4935335;29;20745;-69
2022/07/26 13:35:59;;;;;;;0.77;0.28;;;;;;;34.65;29.67;100021.94;4919441;29;20052;-70
2022/07/26 13:38:24;;;;;;;0.52;0.20;;;;;;;34.75;30.19;100016.84;4916668;29;20024;-69
2022/07/26 13:40:50;;;;;;;1.17;0.32;;;;;;;34.38;29.54;100018.09;4915765;29;20095;-69
2022/07/26 13:43:15;;;;;;;1.55;0.30;;;;;;;34.43;30.74;100007.34;4916325;29;20028;-69
2022/07/26 13:45:41;;;;;;;1.67;0.30;;;;;;;34.54;28.92;100009.53;4915777;29;20028;-69
2022/07/26 13:48:06;;;;;;;1.75;0.40;;;;;;;34.43;29.37;100012.88;4916075;29;20111;-69
2022/07/26 13:50:32;;;;;;;1.85;0.40;;;;;;;34.23;28.94;100022.88;4915833;29;20844;-69
2022/07/26 13:52:57;;;;;;;1.60;0.30;;;;;;;33.88;30.12;100010.88;4916255;29;20036;-69
2022/07/26 13:55:24;;;;;;;1.33;0.40;;;;;;;33.72;29.05;100007.56;4916278;29;20051;-69
2022/07/26 13:57:49;;;;;;;1.17;0.30;;;;;;;33.47;29.67;100009.00;4916041;29;20028;-69
2022/07/26 14:00:15;;;;;;;1.73;0.30;;;;;;;33.20;29.92;100003.16;4897661;29;20032;-69
2022/07/26 14:02:40;;;;;;;0.75;0.30;;;;;;;32.70;30.56;100005.88;4914947;29;20106;-69
2022/07/26 14:05:06;;;;;;;0.95;0.38;;;;;;;32.33;30.17;100013.34;4914720;29;20411;-69
2022/07/26 14:07:31;;;;;;;3.70;0.50;;;;;;;32.19;30.87;100000.44;4914850;29;20039;-69
2022/07/26 14:09:57;;;;;;;2.88;0.30;;;;;;;32.24;31.86;100004.31;4914796;29;20650;-69
2022/07/26 14:12:22;;;;;;;1.85;0.20;;;;;;;32.78;31.88;100002.19;4915044;29;20140;-69
2022/07/26 14:14:47;;;;;;;0.63;0.30;;;;;;;33.13;31.73;99988.44;4914990;29;20028;-69
2022/07/26 14:17:13;;;;;;;1.55;0.35;;;;;;;33.18;30.66;99998.91;4915620;29;20368;-69
2022/07/26 14:19:38;;;;;;;1.92;0.40;;;;;;;33.37;31.41;100001.00;4915235;29;20028;-69
2022/07/26 14:22:04;;;;;;;1.05;0.30;;;;;;;33.39;29.67;99985.97;4915575;29;20042;-69
2022/07/26 14:24:29;;;;;;;1.63;0.30;;;;;;;33.25;30.48;100002.56;4915478;29;20403;-69
2022/07/26 14:26:55;;;;;;;0.95;0.43;;;;;;;32.47;30.32;99993.28;4920918;29;20118;-69
2022/07/26 14:29:20;;;;;;;0.80;0.30;;;;;;;32.29;31.71;100001.03;4934267;29;20032;-69
2022/07/26 14:31:45;;;;;;;1.30;0.43;;;;;;;32.43;30.75;99992.81;4934195;29;20035;-69
2022/07/26 14:34:11;;;;;;;2.28;0.32;;;;;;;32.53;31.10;99976.84;4932733;29;20090;-69
2022/07/26 14:36:36;;;;;;;0.40;0.30;;;;;;;32.73;31.85;99994.50;4914980;29;20052;-69
2022/07/26 14:39:02;;;;;;;0.60;0.30;;;;;;;32.59;30.33;99998.09;4914822;29;20119;-69
2022/07/26 14:41:27;;;;;;;0.80;0.30;;;;;;;32.44;31.20;99991.75;4915557;29;20038;-69
2022/07/26 14:43:52;;;;;;;0.82;0.52;;;;;;;32.30;30.61;99997.22;4915673;29;20571;-69
2022/07/26 14:46:19;;;;;;;2.60;0.43;;;;;;;32.23;31.23;99986.09;4915199;29;20119;-69
2022/07/26 14:48:44;;;;;;;1.30;0.70;;;;;;;32.01;31.79;99987.06;4914972;29;20802;-69
2022/07/26 14:51:10;;;;;;;1.58;0.40;;;;;;;31.97;31.74;99980.19;4914746;29;20032;-69
2022/07/26 14:53:36;;;;;;;4.40;0.50;;;;;;;31.82;31.17;99982.03;4914922;29;20024;-69
2022/07/26 14:56:01;;;;;;;1.60;0.43;;;;;;;31.46;32.40;99991.97;4914906;29;20032;-69
2022/07/26 14:58:27;;;;;;;0.52;0.30;;;;;;;31.23;33.49;99994.69;4914202;29;20035;-68
2022/07/26 15:00:52;;;;;;;3.38;0.40;;;;;;;31.29;32.03;99993.94;4913703;29;20035;-68
2022/07/26 15:03:18;;;;;;;1.58;0.30;;;;;;;31.37;32.75;99996.66;4913335;29;20110;-70
2022/07/26 15:05:44;;;;;;;1.95;0.30;;;;;;;31.37;32.70;99998.59;4913118;29;20137;-69
2022/07/26 15:08:10;;;;;;;1.45;0.40;;;;;;;31.30;32.33;99987.41;4913571;29;20088;-69
2022/07/26 15:10:35;;;;;;;0.45;0.35;;;;;;;31.26;33.21;99982.44;4913669;29;20042;-69
2022/07/26 15:13:05;;;;;;;0.73;0.25;;;;;;;31.32;33.75;99981.78;4897904;29;20150;-69
2022/07/26 15:15:30;;;;;;;0.73;0.30;;;;;;;31.30;32.61;99972.81;4914299;29;20028;-69
2022/07/26 15:17:56;;;;;;;0.95;0.40;;;;;;;31.25;32.37;99972.50;4914641;29;20028;-68
2022/07/26 15:20:23;;;;;;;5.82;0.52;;;;;;;31.06;32.57;99956.47;4914645;29;20056;-68
2022/07/26 15:22:49;;;;;;;0.98;0.32;;;;;;;31.13;32.30;99962.97;4914537;29;20047;-68
2022/07/26 15:25:15;;;;;;;1.08;0.38;;;;;;;31.34;33.47;99971.44;4914401;29;20032;-68
2022/07/26 15:27:40;;;;;;;0.90;0.25;;;;;;;31.40;33.67;99970.72;4926151;29;20034;-69
2022/07/26 15:30:07;;;;;;;1.08;0.40;;;;;;;31.20;32.32;99966.69;4932915;29;20487;-69
2022/07/26 15:32:32;;;;;;;1.10;0.30;;;;;;;30.99;33.22;99970.09;4933121;29;20024;-69
2022/07/26 15:34:58;;;;;;;3.53;0.50;;;;;;;31.04;32.99;99964.91;4925576;29;20511;-69
2022/07/26 15:37:24;;;;;;;0.93;0.28;;;;;;;30.97;32.41;99965.81;4914499;29;20107;-69
2022/07/26 15:39:49;;;;;;;2.20;0.40;;;;;;;30.83;32.98;99957.31;4913732;29;20416;-69
2022/07/26 15:42:15;;;;;;;1.27;0.38;;;;;;;30.90;33.40;99957.44;4914532;29;20112;-69
2022/07/26 15:44:40;;;;;;;1.05;0.40;;;;;;;30.83;33.18;99956.44;4912160;29;20027;-69
2022/07/26 15:47:05;;;;;;;2.67;0.50;;;;;;;30.67;33.37;99960.13;4912513;29;20032;-69
2022/07/26 15:49:31;;;;;;;2.38;0.40;;;;;;;30.64;33.92;99959.63;4912544;29;20439;-69
2022/07/26 15:51:57;;;;;;;1.00;0.30;;;;;;;30.59;33.65;99948.31;4912941;29;20032;-69
2022/07/26 15:54:23;;;;;;;1.88;0.40;;;;;;;30.61;33.78;99958.06;4913013;29;20391;-69
2022/07/26 15:56:49;;;;;;;1.13;0.35;;;;;;;30.64;33.93;99946.72;4912244;29;20028;-69
2022/07/26 15:59:14;;;;;;;1.15;0.43;;;;;;;30.71;33.53;99946.84;4913018;29;20028;-69
2022/07/26 16:01:40;;;;;;;1.48;0.40;;;;;;;30.77;34.00;99951.66;4913842;29;20047;-69
2022/07/26 16:04:05;;;;;;;1.63;0.60;;;;;;;30.91;33.39;99953.66;4913929;29;20036;-69
2022/07/26 16:06:32;;;;;;;3.58;0.57;;;;;;;30.92;35.05;99942.47;4913894;29;20032;-69
2022/07/26 16:09:00;;;;;;;0.88;0.50;;;;;;;30.98;35.15;99949.16;4912965;29;20056;-69
2022/07/26 16:11:29;;;;;;;0.68;0.47;;;;;;;31.11;34.50;99943.03;4914175;29;20027;-69
2022/07/26 16:13:55;;;;;;;2.33;0.40;;;;;;;31.12;33.75;99945.59;4913910;29;20115;-69
2022/07/26 16:16:20;;;;;;;1.48;0.30;;;;;;;30.97;33.90;99941.09;4913609;29;20119;-69
2022/07/26 16:18:46;;;;;;;1.15;0.40;;;;;;;30.97;34.15;99935.59;4913809;29;20466;-68
2022/07/26 16:21:11;;;;;;;1.35;0.70;;;;;;;30.90;33.78;99935.47;4913139;29;20028;-68
2022/07/26 16:23:37;;;;;;;2.10;0.30;;;;;;;31.01;34.22;99931.44;4896814;29;20039;-68
2022/07/26 16:26:04;;;;;;;3.33;0.57;;;;;;;30.97;34.20;99925.47;4912359;29;20036;-68
2022/07/26 16:28:30;;;;;;;0.75;0.30;;;;;;;30.97;33.74;99925.47;4912055;29;20039;-68
2022/07/26 16:30:56;;;;;;;1.08;0.50;;;;;;;30.89;34.11;99928.25;4912141;29;20039;-68
2022/07/26 16:33:21;;;;;;;1.13;0.50;;;;;;;30.95;35.00;99929.41;4912430;29;20547;-69
2022/07/26 16:35:46;;;;;;;0.30;0.30;;;;;;;30.92;34.37;99927.91;4911771;29;20424;-69
2022/07/26 16:38:12;;;;;;;1.80;0.40;;;;;;;30.77;34.24;99918.69;4912269;29;20048;-69
2022/07/26 16:40:37;;;;;;;1.58;0.38;;;;;;;30.67;34.29;99929.91;4912679;29;20052;-69
2022/07/26 16:43:03;;;;;;;0.68;0.30;;;;;;;30.53;33.35;99925.16;4913560;29;20028;-68
2022/07/26 16:45:28;;;;;;;2.35;0.50;;;;;;;30.51;33.95;99927.22;4913364;29;20060;-68
2022/07/26 16:47:53;;;;;;;0.63;0.28;;;;;;;30.47;33.23;99931.38;4913699;29;20120;-68
2022/07/26 16:50:19;;;;;;;5.40;1.00;;;;;;;30.35;33.02;99924.56;4913248;29;20111;-68
2022/07/26 16:52:44;;;;;;;2.10;0.57;;;;;;;30.34;34.05;99924.75;4915360;29;20088;-70
2022/07/26 16:55:10;;;;;;;0.90;0.43;;;;;;;30.28;33.79;99928.22;4915125;29;20028;-69
2022/07/26 16:57:37;;;;;;;1.77;0.40;;;;;;;30.25;33.98;99923.06;4915295;29;20156;-69
2022/07/26 17:00:07;;;;;;;2.75;0.60;;;;;;;30.27;35.03;99926.47;4915172;29;20032;-69
2022/07/26 17:02:33;;;;;;;1.42;0.47;;;;;;;30.19;35.92;99921.84;4915819;29;20032;-69
2022/07/26 17:04:58;;;;;;;3.63;0.50;;;;;;;30.10;35.70;99931.13;4916383;29;20054;-69
2022/07/26 17:07:23;;;;;;;2.30;0.55;;;;;;;30.08;34.80;99921.38;4916883;29;20476;-69
2022/07/26 17:09:49;;;;;;;0.77;0.35;;;;;;;30.02;35.06;99922.06;4916482;29;20036;-69
2022/07/26 17:12:14;;;;;;;2.42;0.50;;;;;;;29.84;35.32;99919.53;4916462;29;20513;-69
2022/07/26 17:14:40;;;;;;;1.17;0.45;;;;;;;29.60;35.21;99922.31;4916843;29;20020;-69
2022/07/26 17:17:05;;;;;;;2.80;0.50;;;;;;;29.40;35.76;99920.94;4916765;29;20028;-69
2022/07/26 17:19:31;;;;;;;1.00;0.40;;;;;;;29.28;36.38;99925.03;4916753;29;20032;-69
2022/07/26 17:21:56;;;;;;;2.38;0.60;;;;;;;29.14;36.96;99914.78;4917016;29;20035;-68
2022/07/26 17:24:22;;;;;;;1.38;0.63;;;;;;;29.05;38.08;99915.75;4916857;29;20028;-67
2022/07/26 17:26:47;;;;;;;3.85;0.43;;;;;;;29.05;38.68;99918.50;4921341;29;20024;-67
2022/07/26 17:29:13;;;;;;;2.67;0.50;;;;;;;29.08;39.51;99920.91;4935084;29;20090;-67
2022/07/26 17:31:38;;;;;;;3.72;0.70;;;;;;;29.01;39.64;99911.66;4935609;29;20032;-67
2022/07/26 17:34:04;;;;;;;0.90;0.50;;;;;;;28.99;38.41;99911.81;4935139;29;20028;-67
2022/07/26 17:36:30;;;;;;;3.10;0.60;;;;;;;28.93;39.17;99911.66;4916501;29;20419;-68
2022/07/26 17:38:56;;;;;;;0.88;0.40;;;;;;;28.96;39.74;99911.31;4915612;29;20551;-68
2022/07/26 17:41:23;;;;;;;1.35;0.57;;;;;;;28.85;38.64;99904.25;4916298;29;20036;-68
2022/07/26 17:43:51;;;;;;;6.25;0.68;;;;;;;28.78;40.16;99913.31;4916302;29;20032;-68
2022/07/26 17:46:17;;;;;;;1.23;0.60;;;;;;;28.69;40.16;99897.88;4916442;29;20032;-68
2022/07/26 17:48:45;;;;;;;1.38;0.57;;;;;;;28.71;40.28;99917.75;4916312;29;20538;-68
2022/07/26 17:51:12;;;;;;;5.00;0.82;;;;;;;28.70;40.83;99914.16;4915296;29;20024;-68
2022/07/26 17:53:37;;;;;;;0.95;0.40;;;;;;;28.59;40.47;99908.13;4914058;29;20043;-68
2022/07/26 17:56:03;;;;;;;4.50;0.77;;;;;;;28.42;40.69;99908.06;4916325;29;20036;-68
2022/07/26 17:58:28;;;;;;;2.63;0.60;;;;;;;28.43;41.19;99920.69;4916209;29;20040;-68
2022/07/26 18:00:54;;;;;;;1.98;0.82;;;;;;;28.31;42.25;99922.03;4915802;29;20035;-68
2022/07/26 18:03:20;;;;;;;1.42;0.68;;;;;;;28.24;42.46;99920.97;4914867;29;20032;-68
2022/07/26 18:05:46;;;;;;;2.55;0.82;;;;;;;28.09;42.26;99917.13;4915867;29;20084;-68